Time;durP1;ratioP1;P1;durP2;ratioP2;P2;SDS_P1;SDS_P2;PMS_P1;PMS_P2;Temp;Humidity;BMP_temperature;BMP_pressure;BME280_temperature;BME280_humidity;BME280_pressure;Samples;Min_cycle;Max_cycle;Signal;HPM_P1;HPM_P2
2023/07/17 00:00:36;;;;;;;3.00;0.68;;;;;;;17.96;66.59;101548.63;4995933;28;99771;-27
2023/07/17 00:03:04;;;;;;;2.15;0.70;;;;;;;17.90;66.37;101561.97;4996509;28;98822;-28
2023/07/17 00:05:29;;;;;;;3.42;0.60;;;;;;;17.90;66.63;101556.47;4995405;28;96622;-29
2023/07/17 00:07:54;;;;;;;4.03;0.80;;;;;;;17.93;66.63;101559.84;4996510;28;96943;-27
2023/07/17 00:10:20;;;;;;;2.50;0.98;;;;;;;17.90;66.92;101562.84;4996358;28;99209;-27
2023/07/17 00:12:45;;;;;;;1.80;0.70;;;;;;;17.86;66.28;101546.78;4996479;28;97758;-27
2023/07/17 00:15:12;;;;;;;1.02;0.60;;;;;;;17.86;66.84;101558.63;4996878;28;96590;-27
2023/07/17 00:17:37;;;;;;;2.70;0.60;;;;;;;17.85;66.58;101564.22;4997108;28;96776;-27
2023/07/17 00:20:10;;;;;;;5.95;0.85;;;;;;;17.83;66.99;101570.69;4996454;28;97945;-27
2023/07/17 00:22:35;;;;;;;1.73;0.73;;;;;;;17.85;67.19;101566.94;4996242;28;99757;-27
2023/07/17 00:25:01;;;;;;;3.20;0.63;;;;;;;17.77;67.28;101571.16;4996022;28;96420;-28
2023/07/17 00:27:26;;;;;;;2.25;0.50;;;;;;;17.73;67.32;101558.72;4996631;28;96762;-27
2023/07/17 00:29:52;;;;;;;0.73;0.45;;;;;;;17.73;67.05;101566.03;4995920;28;98962;-27
2023/07/17 00:32:17;;;;;;;1.48;0.57;;;;;;;17.66;67.26;101562.03;4994692;28;100781;-27
2023/07/17 00:34:43;;;;;;;2.63;0.70;;;;;;;17.71;67.47;101568.91;4996268;28;96605;-27
2023/07/17 00:37:08;;;;;;;3.15;0.70;;;;;;;17.71;67.43;101573.50;4996113;28;96766;-28
2023/07/17 00:39:35;;;;;;;1.20;0.60;;;;;;;17.59;67.99;101564.41;4994497;28;100859;-27
2023/07/17 00:42:01;;;;;;;2.58;0.77;;;;;;;17.59;68.26;101579.00;4994812;28;101190;-26
2023/07/17 00:44:27;;;;;;;3.17;0.90;;;;;;;17.52;67.98;101577.72;4994379;28;96587;-27
2023/07/17 00:46:54;;;;;;;6.38;1.38;;;;;;;17.50;68.09;101568.75;4994217;28;96815;-27
2023/07/17 00:49:21;;;;;;;2.17;0.98;;;;;;;17.59;67.66;101583.56;4992961;28;101144;-27
2023/07/17 00:51:47;;;;;;;6.25;0.73;;;;;;;17.46;68.19;101564.50;4994133;28;101152;-27
2023/07/17 00:54:15;;;;;;;1.30;0.47;;;;;;;17.47;68.07;101574.50;4996316;28;96445;-27
2023/07/17 00:56:43;;;;;;;4.30;0.68;;;;;;;17.39;67.77;101561.38;4994646;28;96779;-26
2023/07/17 00:59:09;;;;;;;2.03;0.60;;;;;;;17.47;67.87;101569.00;4994214;28;101086;-27
2023/07/17 01:01:35;;;;;;;8.73;0.80;;;;;;;17.47;67.91;101579.06;4995704;28;97369;-27
2023/07/17 01:04:05;;;;;;;3.78;0.93;;;;;;;17.39;67.92;101586.03;4994556;28;96594;-27
2023/07/17 01:06:31;;;;;;;2.83;0.82;;;;;;;17.30;68.56;101583.13;4994671;28;96580;-27
2023/07/17 01:08:59;;;;;;;4.03;0.90;;;;;;;17.28;68.51;101588.75;4994072;28;101211;-28
2023/07/17 01:11:25;;;;;;;6.50;1.17;;;;;;;17.21;68.21;101584.75;4994186;28;101377;-28
2023/07/17 01:13:51;;;;;;;1.80;0.73;;;;;;;17.24;68.44;101589.97;4995423;28;96467;-27
2023/07/17 01:16:17;;;;;;;1.92;0.90;;;;;;;17.18;68.83;101579.50;4994280;28;96854;-26
2023/07/17 01:18:43;;;;;;;2.70;1.05;;;;;;;17.21;68.59;101582.00;4994047;28;100465;-33
2023/07/17 01:21:12;;;;;;;2.10;0.93;;;;;;;17.28;68.74;101591.50;4993908;28;100775;-27
2023/07/17 01:23:38;;;;;;;4.57;1.05;;;;;;;17.23;68.83;101599.16;4994170;28;96543;-27
2023/07/17 01:26:14;;;;;;;1.92;0.95;;;;;;;17.23;69.15;101601.03;4995645;28;96752;-27
2023/07/17 01:28:39;;;;;;;2.75;0.82;;;;;;;17.20;68.29;101588.47;4993911;28;101176;-27
2023/07/17 01:31:05;;;;;;;1.70;0.80;;;;;;;17.14;68.75;101592.56;4995697;28;97763;-27
2023/07/17 01:33:30;;;;;;;1.52;0.65;;;;;;;17.08;68.79;101594.91;4993732;28;96637;-27
2023/07/17 01:35:56;;;;;;;1.95;0.70;;;;;;;17.09;69.30;101603.00;4995743;28;96756;-27
2023/07/17 01:38:21;;;;;;;1.83;0.80;;;;;;;17.08;68.85;101600.38;4994628;28;97938;-27
2023/07/17 01:40:46;;;;;;;2.90;0.90;;;;;;;17.09;69.19;101591.16;4995197;28;97787;-27
2023/07/17 01:43:12;;;;;;;2.58;0.60;;;;;;;17.07;68.95;101591.28;4995798;28;96523;-28
2023/07/17 01:45:37;;;;;;;5.55;1.10;;;;;;;17.03;69.04;101599.84;4995190;28;96858;-28
2023/07/17 01:48:02;;;;;;;2.88;0.80;;;;;;;17.07;69.37;101604.13;4994397;28;97435;-27
2023/07/17 01:50:28;;;;;;;3.60;0.60;;;;;;;17.03;69.18;101606.19;4993421;28;100994;-27
2023/07/17 01:52:53;;;;;;;1.63;0.68;;;;;;;17.04;69.67;101605.22;4993847;28;96580;-27
2023/07/17 01:55:18;;;;;;;4.10;1.10;;;;;;;17.05;68.80;101601.47;4995928;28;96777;-27
2023/07/17 01:57:44;;;;;;;3.40;0.88;;;;;;;17.04;69.48;101602.50;4994739;28;97458;-27
2023/07/17 02:00:12;;;;;;;1.90;0.75;;;;;;;17.03;69.76;101605.31;4994987;28;97358;-27
2023/07/17 02:02:37;;;;;;;2.55;1.27;;;;;;;17.07;69.51;101595.91;4992798;28;96706;-27
2023/07/17 02:05:03;;;;;;;4.82;0.98;;;;;;;17.04;69.60;101604.31;4993626;28;96785;-27
2023/07/17 02:07:28;;;;;;;2.15;0.68;;;;;;;16.98;70.02;101605.69;4994856;28;99409;-28
2023/07/17 02:09:54;;;;;;;2.63;1.10;;;;;;;16.90;69.37;101597.16;4994555;28;99402;-27
2023/07/17 02:12:19;;;;;;;3.95;1.10;;;;;;;16.82;69.78;101589.53;4994840;28;96644;-27
2023/07/17 02:14:44;;;;;;;3.60;1.05;;;;;;;16.88;70.15;101594.56;4995102;28;96770;-27
2023/07/17 02:17:10;;;;;;;3.40;1.15;;;;;;;16.94;70.09;101605.03;4994406;28;99281;-28
2023/07/17 02:19:35;;;;;;;6.25;1.30;;;;;;;16.83;69.74;101588.56;4994682;28;99606;-27
2023/07/17 02:22:00;;;;;;;4.13;1.25;;;;;;;16.82;70.48;101595.03;4995023;28;96455;-27
2023/07/17 02:24:26;;;;;;;2.30;1.02;;;;;;;16.73;70.55;101595.69;4994907;28;96740;-28
2023/07/17 02:26:53;;;;;;;2.00;1.00;;;;;;;16.70;70.06;101590.44;4992618;28;98844;-27
2023/07/17 02:29:18;;;;;;;1.45;1.00;;;;;;;16.71;70.67;101606.75;4994410;28;96869;-27
2023/07/17 02:31:44;;;;;;;4.20;1.25;;;;;;;16.69;70.91;101603.25;4994474;28;96550;-28
2023/07/17 02:34:09;;;;;;;2.40;0.85;;;;;;;16.71;70.80;101614.97;4995025;28;96814;-27
2023/07/17 02:36:37;;;;;;;2.28;0.82;;;;;;;16.72;70.81;101607.63;4994370;28;97223;-28
2023/07/17 02:39:04;;;;;;;2.42;0.88;;;;;;;16.68;70.60;101609.69;4992928;28;99403;-27
2023/07/17 02:41:29;;;;;;;3.38;1.35;;;;;;;16.69;70.63;101602.41;4993198;28;96661;-27
2023/07/17 02:43:55;;;;;;;4.43;1.40;;;;;;;16.58;71.53;101602.31;4995062;28;96861;-27
2023/07/17 02:46:20;;;;;;;1.90;0.85;;;;;;;16.59;71.11;101601.31;4994426;28;97567;-27
2023/07/17 02:48:46;;;;;;;3.67;1.35;;;;;;;16.62;71.33;101607.44;4993703;28;97878;-27
2023/07/17 02:51:11;;;;;;;3.35;1.25;;;;;;;16.56;71.02;101603.31;4994195;28;96466;-29
2023/07/17 02:53:37;;;;;;;2.40;1.05;;;;;;;16.59;71.38;101601.31;4994363;28;96589;-27
2023/07/17 02:56:03;;;;;;;2.90;1.02;;;;;;;16.55;71.57;101609.75;4994236;28;97528;-27
2023/07/17 02:58:28;;;;;;;1.80;1.00;;;;;;;16.50;72.39;101614.72;4993876;28;99208;-27
2023/07/17 03:00:54;;;;;;;7.93;1.58;;;;;;;16.53;71.94;101621.81;4994326;28;96633;-27
2023/07/17 03:03:19;;;;;;;2.45;1.02;;;;;;;16.43;72.85;101610.69;4994381;28;96747;-27
2023/07/17 03:05:44;;;;;;;3.80;1.13;;;;;;;16.48;72.53;101618.53;4994065;28;98047;-28
2023/07/17 03:08:10;;;;;;;2.15;1.10;;;;;;;16.51;72.30;101624.66;4994797;28;97802;-27
2023/07/17 03:10:36;;;;;;;4.95;1.15;;;;;;;16.48;72.27;101626.75;4997818;28;96490;-27
2023/07/17 03:13:01;;;;;;;3.95;1.45;;;;;;;16.44;72.37;101619.75;4997854;28;96815;-27
2023/07/17 03:15:27;;;;;;;3.13;1.50;;;;;;;16.37;73.36;101611.13;4996660;28;98837;-27
2023/07/17 03:17:52;;;;;;;4.28;1.00;;;;;;;16.44;72.60;101622.47;4997295;28;97280;-27
2023/07/17 03:20:18;;;;;;;4.55;1.60;;;;;;;16.41;72.44;101620.00;4997521;28;96603;-27
2023/07/17 03:22:44;;;;;;;2.83;1.25;;;;;;;16.42;72.68;101611.69;4996117;28;96832;-27
2023/07/17 03:25:09;;;;;;;5.75;1.85;;;;;;;16.45;73.00;101621.50;4997389;28;97319;-27
2023/07/17 03:27:34;;;;;;;4.93;1.30;;;;;;;16.46;73.24;101626.84;4996920;28;99160;-27
2023/07/17 03:30:00;;;;;;;4.10;1.52;;;;;;;16.39;73.08;101621.97;4997459;28;96476;-27
2023/07/17 03:32:25;;;;;;;3.83;1.35;;;;;;;16.41;73.00;101623.59;4996635;28;96848;-27
2023/07/17 03:34:51;;;;;;;6.72;1.42;;;;;;;16.39;73.85;101620.09;4997217;28;98003;-28
2023/07/17 03:37:16;;;;;;;3.55;1.38;;;;;;;16.44;72.92;101626.09;4997034;28;97856;-27
2023/07/17 03:39:41;;;;;;;5.55;1.58;;;;;;;16.42;72.87;101628.09;4996597;28;96624;-27
2023/07/17 03:42:11;;;;;;;3.67;1.50;;;;;;;16.39;73.31;101636.50;4995839;28;96892;-27
2023/07/17 03:44:37;;;;;;;3.53;1.50;;;;;;;16.35;73.60;101635.88;4995536;28;101447;-27
2023/07/17 03:47:03;;;;;;;5.03;1.40;;;;;;;16.29;73.80;101630.81;4995363;28;100719;-27
2023/07/17 03:49:29;;;;;;;9.93;1.75;;;;;;;16.24;73.67;101621.22;4995049;28;96563;-27
2023/07/17 03:51:54;;;;;;;2.78;1.40;;;;;;;16.31;74.41;101633.47;4997291;28;96745;-27
2023/07/17 03:54:20;;;;;;;4.50;1.63;;;;;;;16.29;73.96;101636.31;4996779;28;99209;-27
2023/07/17 03:56:45;;;;;;;8.98;2.10;;;;;;;16.33;74.44;101639.69;4997331;28;97834;-28
2023/07/17 03:59:10;;;;;;;3.83;1.25;;;;;;;16.29;73.68;101638.16;4996790;28;96518;-27
2023/07/17 04:01:35;;;;;;;4.50;1.27;;;;;;;16.27;74.40;101638.25;4997121;28;96712;-27
2023/07/17 04:04:01;;;;;;;5.03;1.75;;;;;;;16.28;74.62;101641.88;4996205;28;97943;-28
2023/07/17 04:06:26;;;;;;;4.07;1.50;;;;;;;16.28;74.49;101642.75;4996609;28;97846;-27
2023/07/17 04:08:51;;;;;;;4.30;1.63;;;;;;;16.24;75.29;101633.03;4996838;28;96603;-27
2023/07/17 04:11:17;;;;;;;4.45;1.73;;;;;;;16.31;74.02;101645.25;4996914;28;96812;-27
2023/07/17 04:13:44;;;;;;;2.75;1.20;;;;;;;16.35;74.77;101645.91;4996460;28;97928;-28
2023/07/17 04:16:09;;;;;;;3.60;1.48;;;;;;;16.36;74.57;101653.13;4996225;28;99272;-27
2023/07/17 04:18:35;;;;;;;3.15;1.25;;;;;;;16.31;74.65;101649.88;4996683;28;96531;-27
2023/07/17 04:21:00;;;;;;;2.75;1.38;;;;;;;16.25;75.22;101656.63;4996940;28;96833;-27
2023/07/17 04:23:25;;;;;;;4.35;1.27;;;;;;;16.24;75.74;101651.31;4996372;28;97929;-27
2023/07/17 04:25:51;;;;;;;4.47;1.45;;;;;;;16.22;75.77;101650.53;4994840;28;99324;-27
2023/07/17 04:28:17;;;;;;;5.70;1.50;;;;;;;16.23;76.08;101657.72;4996104;28;96618;-27
2023/07/17 04:30:43;;;;;;;11.80;2.00;;;;;;;16.21;75.87;101656.97;4996326;28;96920;-27
2023/07/17 04:33:08;;;;;;;7.32;1.75;;;;;;;16.17;76.31;101650.00;4996139;28;97951;-29
2023/07/17 04:35:37;;;;;;;3.63;1.38;;;;;;;16.21;75.52;101654.22;4995812;28;97258;-27
2023/07/17 04:38:03;;;;;;;5.30;1.80;;;;;;;16.21;76.43;101655.13;4995253;28;96689;-27
2023/07/17 04:40:29;;;;;;;6.88;1.83;;;;;;;16.21;75.85;101656.97;4994895;28;96789;-27
2023/07/17 04:42:55;;;;;;;6.57;1.70;;;;;;;16.20;76.57;101656.09;4994586;28;101342;-27
2023/07/17 04:45:20;;;;;;;3.40;1.80;;;;;;;16.25;76.37;101658.50;4995795;28;108304;-27
2023/07/17 04:47:45;;;;;;;4.53;1.40;;;;;;;16.11;77.29;101654.94;4995834;28;96907;-28
2023/07/17 04:50:11;;;;;;;6.95;1.85;;;;;;;16.24;76.52;101675.91;4996332;28;96768;-27
2023/07/17 04:52:36;;;;;;;4.78;1.88;;;;;;;16.18;76.57;101666.25;4995617;28;97298;-27
2023/07/17 04:55:01;;;;;;;6.85;2.17;;;;;;;16.22;76.62;101686.06;4995907;28;98129;-28
2023/07/17 04:57:27;;;;;;;6.03;2.05;;;;;;;16.23;76.57;101685.06;4996095;28;96579;-27
2023/07/17 04:59:52;;;;;;;6.95;2.33;;;;;;;16.25;75.77;101689.44;4995840;28;96895;-27
2023/07/17 05:02:18;;;;;;;4.40;2.05;;;;;;;16.22;78.15;101692.41;4995854;28;97400;-27
2023/07/17 05:04:43;;;;;;;7.40;1.95;;;;;;;16.20;77.23;101693.50;4995800;28;97266;-27
2023/07/17 05:07:09;;;;;;;6.00;2.35;;;;;;;16.30;76.88;101703.69;4995972;28;96609;-27
2023/07/17 05:09:34;;;;;;;6.30;2.47;;;;;;;16.25;77.33;101686.72;4996159;28;96823;-27
2023/07/17 05:11:59;;;;;;;9.07;2.22;;;;;;;16.31;78.13;101710.03;4995730;28;98397;-29
2023/07/17 05:14:25;;;;;;;6.15;2.35;;;;;;;16.22;77.59;101706.06;4995376;28;97777;-28
2023/07/17 05:16:50;;;;;;;6.35;1.92;;;;;;;16.17;77.97;101701.94;4995093;28;96541;-27
2023/07/17 05:19:16;;;;;;;6.22;2.58;;;;;;;16.16;78.38;101705.63;4995409;28;96859;-27
2023/07/17 05:21:41;;;;;;;7.47;2.25;;;;;;;16.19;77.98;101702.72;4995090;28;105500;-27
2023/07/17 05:24:06;;;;;;;5.10;2.20;;;;;;;16.21;78.35;101709.81;4995353;28;97788;-27
2023/07/17 05:26:32;;;;;;;5.18;2.22;;;;;;;16.32;77.64;101722.69;4995802;28;96705;-27
2023/07/17 05:28:57;;;;;;;7.28;2.58;;;;;;;16.33;77.82;101719.84;4995386;28;97453;-27
2023/07/17 05:31:22;;;;;;;4.82;1.90;;;;;;;16.35;78.05;101720.63;4994765;28;97515;-27
2023/07/17 05:33:48;;;;;;;7.97;3.00;;;;;;;16.31;77.23;101713.63;4995658;28;97743;-27
2023/07/17 05:36:13;;;;;;;4.65;2.30;;;;;;;16.33;77.71;101717.13;4995435;28;96926;-27
2023/07/17 05:38:38;;;;;;;7.68;2.58;;;;;;;16.47;77.50;101726.16;4995624;28;96770;-27
2023/07/17 05:41:04;;;;;;;4.78;2.20;;;;;;;16.51;76.78;101728.56;4994712;28;98019;-29
2023/07/17 05:43:31;;;;;;;9.50;2.55;;;;;;;16.53;77.10;101728.47;4995010;28;97361;-27
2023/07/17 05:45:56;;;;;;;6.20;2.85;;;;;;;16.51;76.55;101725.84;4994072;28;96659;-27
2023/07/17 05:48:22;;;;;;;6.35;2.47;;;;;;;16.63;77.22;101731.41;4994829;28;96868;-27
2023/07/17 05:50:47;;;;;;;5.32;2.55;;;;;;;16.67;76.50;101730.22;4995062;28;97987;-27
2023/07/17 05:53:13;;;;;;;9.25;2.47;;;;;;;16.75;76.60;101739.59;4994922;28;97881;-27
2023/07/17 05:55:38;;;;;;;10.38;2.90;;;;;;;16.78;76.06;101735.78;4995305;28;96669;-27
2023/07/17 05:58:03;;;;;;;6.78;2.55;;;;;;;16.86;76.77;101747.06;4995424;28;96738;-27
2023/07/17 06:00:29;;;;;;;8.20;2.72;;;;;;;16.91;76.03;101746.72;4994924;28;97884;-27
2023/07/17 06:02:54;;;;;;;7.32;2.55;;;;;;;16.99;75.70;101738.78;4994544;28;98930;-27
2023/07/17 06:05:20;;;;;;;8.30;3.22;;;;;;;17.10;75.58;101746.22;4994867;28;96504;-27
2023/07/17 06:07:45;;;;;;;5.82;2.53;;;;;;;17.20;75.95;101750.88;4995286;28;96761;-27
2023/07/17 06:10:12;;;;;;;7.55;2.20;;;;;;;17.19;75.67;101749.13;4994778;28;97415;-27
2023/07/17 06:12:38;;;;;;;11.18;2.45;;;;;;;17.37;75.22;101749.59;4993423;28;100329;-27
2023/07/17 06:15:05;;;;;;;4.78;2.10;;;;;;;17.40;75.31;101754.00;4993661;28;96558;-27
2023/07/17 06:17:31;;;;;;;6.82;2.55;;;;;;;17.40;74.97;101754.88;4993570;28;96840;-28
2023/07/17 06:19:56;;;;;;;5.70;2.28;;;;;;;17.51;74.30;101761.38;4994513;28;97325;-27
2023/07/17 06:22:22;;;;;;;8.90;3.05;;;;;;;17.66;74.36;101760.19;4995008;28;97754;-27
2023/07/17 06:24:48;;;;;;;6.05;2.72;;;;;;;17.74;74.08;101743.19;4994654;28;96699;-27
2023/07/17 06:27:13;;;;;;;6.95;3.10;;;;;;;17.85;74.24;101754.19;4994511;28;96758;-27
2023/07/17 06:29:38;;;;;;;8.32;2.75;;;;;;;17.73;74.46;101766.97;4994288;28;97208;-27
2023/07/17 06:32:04;;;;;;;4.97;2.22;;;;;;;17.78;74.34;101763.84;4994576;28;97213;-27
2023/07/17 06:34:29;;;;;;;7.80;2.08;;;;;;;17.78;73.90;101766.59;4993301;28;96538;-27
2023/07/17 06:36:55;;;;;;;9.98;2.70;;;;;;;17.79;73.69;101765.63;4994916;28;96858;-27
2023/07/17 06:39:20;;;;;;;4.57;2.00;;;;;;;17.66;74.17;101771.16;4994173;28;99240;-28
2023/07/17 06:41:45;;;;;;;9.20;2.88;;;;;;;17.75;74.54;101770.44;4994303;28;97261;-28
2023/07/17 06:44:11;;;;;;;6.30;2.10;;;;;;;17.73;74.27;101777.94;4996716;28;96378;-27
2023/07/17 06:46:36;;;;;;;6.90;2.20;;;;;;;17.85;73.92;101778.00;4998515;28;96917;-27
2023/07/17 06:49:01;;;;;;;7.47;2.45;;;;;;;17.83;74.14;101773.53;4996971;28;99531;-27
2023/07/17 06:51:27;;;;;;;4.03;2.05;;;;;;;17.91;74.06;101767.44;4997920;28;98250;-27
2023/07/17 06:53:53;;;;;;;6.38;2.20;;;;;;;18.13;73.24;101768.50;4997714;28;96583;-27
2023/07/17 06:56:18;;;;;;;8.00;3.13;;;;;;;18.44;73.19;101772.41;4996191;28;96803;-27
2023/07/17 06:58:44;;;;;;;5.30;2.30;;;;;;;18.59;71.86;101775.78;4997610;28;98129;-27
2023/07/17 07:01:11;;;;;;;6.07;2.58;;;;;;;18.65;71.69;101787.16;4997911;28;97203;-27
2023/07/17 07:03:37;;;;;;;7.80;2.45;;;;;;;18.85;71.26;101779.19;4997618;28;96469;-27
2023/07/17 07:06:04;;;;;;;6.35;1.95;;;;;;;18.81;70.90;101789.56;4998033;28;96523;-27
2023/07/17 07:08:30;;;;;;;6.80;1.95;;;;;;;18.82;70.66;101772.09;4997452;28;97968;-27
2023/07/17 07:10:58;;;;;;;8.05;2.75;;;;;;;19.08;70.50;101782.81;4996178;28;100743;-27
2023/07/17 07:13:24;;;;;;;7.10;2.45;;;;;;;19.09;69.73;101784.53;4996410;28;96543;-27
2023/07/17 07:15:53;;;;;;;8.98;2.60;;;;;;;19.09;69.78;101795.50;4996424;28;96781;-28
2023/07/17 07:18:19;;;;;;;4.75;1.67;;;;;;;19.17;69.78;101786.66;4995227;28;101014;-27
2023/07/17 07:20:46;;;;;;;6.15;2.05;;;;;;;19.35;69.27;101804.34;4996093;28;100891;-26
2023/07/17 07:23:11;;;;;;;4.03;1.50;;;;;;;19.50;69.34;101796.72;4996270;28;96752;-27
2023/07/17 07:25:37;;;;;;;7.03;2.15;;;;;;;19.63;67.46;101794.66;4997654;28;97481;-27
2023/07/17 07:28:04;;;;;;;3.45;1.50;;;;;;;19.88;67.10;101809.09;4995698;28;101104;-27
2023/07/17 07:30:30;;;;;;;6.82;2.10;;;;;;;19.96;65.46;101800.19;4995640;28;100940;-29
2023/07/17 07:32:55;;;;;;;3.90;1.48;;;;;;;20.12;66.02;101806.97;4996038;28;96713;-27
2023/07/17 07:35:21;;;;;;;5.05;1.70;;;;;;;20.29;64.78;101811.00;4997580;28;96848;-28
2023/07/17 07:37:46;;;;;;;4.72;1.83;;;;;;;20.43;64.53;101807.06;4997217;28;97273;-27
2023/07/17 07:40:12;;;;;;;6.82;1.80;;;;;;;20.50;63.26;101800.00;4996765;28;97867;-27
2023/07/17 07:42:38;;;;;;;4.18;1.38;;;;;;;20.51;62.86;101814.63;4995457;28;96699;-27
2023/07/17 07:45:05;;;;;;;5.40;1.40;;;;;;;20.62;62.45;101809.06;4995856;28;96940;-28
2023/07/17 07:47:31;;;;;;;2.35;0.95;;;;;;;20.87;61.91;101816.00;4995212;28;100922;-27
2023/07/17 07:49:56;;;;;;;2.90;1.08;;;;;;;21.04;61.38;101811.72;4996312;28;99247;-28
2023/07/17 07:52:22;;;;;;;2.60;0.88;;;;;;;21.20;60.91;101820.34;4997492;28;96516;-27
2023/07/17 07:54:47;;;;;;;1.33;0.80;;;;;;;21.31;60.27;101821.22;4995132;28;96882;-27
2023/07/17 07:57:13;;;;;;;2.00;1.15;;;;;;;21.41;58.70;101831.31;4996924;28;97921;-27
2023/07/17 07:59:38;;;;;;;2.83;1.23;;;;;;;21.46;58.56;101819.88;4997047;28;99781;-27
2023/07/17 08:02:04;;;;;;;2.83;1.02;;;;;;;21.55;58.00;101837.44;4997294;28;96606;-27
2023/07/17 08:04:29;;;;;;;3.38;1.10;;;;;;;21.55;57.80;101835.56;4996866;28;96832;-28
2023/07/17 08:06:56;;;;;;;5.55;1.05;;;;;;;21.62;56.58;101822.09;4996461;28;97309;-27
2023/07/17 08:09:21;;;;;;;3.92;0.88;;;;;;;21.70;57.36;101835.16;4994733;28;101034;-28
2023/07/17 08:11:46;;;;;;;4.18;1.00;;;;;;;21.44;57.60;101830.16;4996963;28;96613;-28
2023/07/17 08:14:12;;;;;;;6.63;1.00;;;;;;;21.27;58.31;101833.56;4996811;28;96854;-27
2023/07/17 08:16:37;;;;;;;2.45;0.80;;;;;;;21.05;58.09;101826.38;4996481;28;97975;-27
2023/07/17 08:19:03;;;;;;;3.97;1.25;;;;;;;20.87;58.27;101840.78;4996115;28;99376;-28
2023/07/17 08:21:28;;;;;;;3.83;1.50;;;;;;;20.51;60.88;101843.00;4996571;28;96671;-27
2023/07/17 08:23:54;;;;;;;5.25;1.60;;;;;;;20.28;61.33;101845.00;4997322;28;96601;-27
2023/07/17 08:26:19;;;;;;;5.25;1.65;;;;;;;;;;4996310;28;97060;-27
2023/07/17 08:28:44;;;;;;;2.80;1.53;;;;;;;19.47;66.46;101852.81;4996531;28;97786;-27
2023/07/17 08:31:10;;;;;;;7.90;1.58;;;;;;;19.34;67.61;101864.94;4996190;28;96593;-27
2023/07/17 08:33:36;;;;;;;5.35;1.45;;;;;;;19.12;67.53;101865.84;4996400;28;96790;-27
2023/07/17 08:36:01;;;;;;;3.25;1.17;;;;;;;18.97;69.33;101874.28;4996044;28;98003;-27
2023/07/17 08:38:27;;;;;;;5.82;1.50;;;;;;;18.89;69.92;101882.28;4994242;28;100774;-27
2023/07/17 08:40:53;;;;;;;3.13;1.70;;;;;;;18.71;70.58;101873.63;4996478;28;96681;-28
2023/07/17 08:43:20;;;;;;;2.67;1.23;;;;;;;18.62;71.50;101875.22;4994996;28;96835;-27
2023/07/17 08:45:46;;;;;;;5.07;1.98;;;;;;;18.48;71.29;101880.06;4994472;28;101102;-27
2023/07/17 08:48:14;;;;;;;5.00;1.75;;;;;;;18.62;71.50;101880.72;4995566;28;99132;-27
2023/07/17 08:50:40;;;;;;;4.05;1.42;;;;;;;18.86;72.05;101886.16;4996428;28;96657;-27
2023/07/17 08:53:07;;;;;;;5.20;1.42;;;;;;;19.13;70.30;101884.03;4995989;28;96609;-27
2023/07/17 08:55:33;;;;;;;4.70;1.50;;;;;;;19.28;71.25;101877.28;4993992;28;100979;-27
2023/07/17 08:58:03;;;;;;;7.63;1.67;;;;;;;19.14;71.80;101889.44;4995879;28;97286;-27
2023/07/17 09:00:29;;;;;;;4.22;1.50;;;;;;;18.97;71.81;101895.38;4994693;28;96541;-26
2023/07/17 09:02:55;;;;;;;7.40;1.70;;;;;;;18.75;72.37;101883.34;4994605;28;96822;-27
2023/07/17 09:05:20;;;;;;;5.07;1.40;;;;;;;18.63;74.15;101898.03;4995552;28;97925;-27
2023/07/17 09:07:47;;;;;;;8.27;2.30;;;;;;;18.58;73.75;101892.91;4994788;28;97991;-27
2023/07/17 09:10:21;;;;;;;4.32;1.65;;;;;;;18.62;75.03;101893.56;4994800;28;96673;-27
2023/07/17 09:12:53;;;;;;;4.13;1.38;;;;;;;18.71;75.20;101889.19;4994898;28;96847;-27
2023/07/17 09:15:19;;;;;;;3.53;1.80;;;;;;;19.12;73.55;101885.94;4995372;28;99273;-27
2023/07/17 09:17:45;;;;;;;4.50;1.65;;;;;;;19.49;72.86;101875.50;4993925;28;99366;-26
2023/07/17 09:20:11;;;;;;;5.50;1.60;;;;;;;19.96;73.55;101882.69;4994880;28;96670;-27
2023/07/17 09:22:41;;;;;;;6.53;1.75;;;;;;;20.26;71.28;101870.91;4994200;28;96837;-26
2023/07/17 09:25:07;;;;;;;4.68;1.52;;;;;;;20.34;70.85;101884.91;4993902;28;100760;-27
2023/07/17 09:27:50;;;;;;;5.57;2.10;;;;;;;20.63;70.22;101874.13;4993925;28;102259;-27
2023/07/17 09:30:18;;;;;;;7.03;1.90;;;;;;;20.76;69.34;101887.69;4994239;28;96770;-28
2023/07/17 09:32:45;;;;;;;8.13;2.25;;;;;;;21.06;68.79;101874.97;4993798;28;96944;-27
2023/07/17 09:35:12;;;;;;;4.35;1.63;;;;;;;21.13;68.88;101885.28;4994951;28;98564;-27
2023/07/17 09:37:40;;;;;;;4.32;1.73;;;;;;;20.85;67.86;101875.00;4994206;28;100677;-27
2023/07/17 09:40:10;;;;;;;5.13;1.75;;;;;;;20.69;68.68;101880.97;4993884;28;96715;-27
2023/07/17 09:42:40;;;;;;;4.53;1.98;;;;;;;20.58;68.86;101866.28;4995464;28;96637;-27
2023/07/17 09:45:06;;;;;;;5.40;1.40;;;;;;;20.78;68.61;101878.31;4993097;28;101558;-27
2023/07/17 09:47:32;;;;;;;5.63;1.67;;;;;;;21.18;66.90;101893.13;4994877;28;98728;-28
2023/07/17 09:50:00;;;;;;;4.82;1.75;;;;;;;21.49;66.39;101871.09;4993316;28;96889;-27
2023/07/17 09:52:27;;;;;;;4.32;1.42;;;;;;;21.74;64.96;101883.50;4993597;28;96917;-27
2023/07/17 09:54:54;;;;;;;4.07;1.58;;;;;;;21.97;64.88;101878.56;4993430;28;101453;-28
2023/07/17 09:57:31;;;;;;;4.82;1.85;;;;;;;22.20;64.06;101895.75;4992163;28;100653;-27
2023/07/17 10:00:03;;;;;;;5.10;1.52;;;;;;;22.42;64.01;101895.47;4993611;28;96639;-27
2023/07/17 10:02:33;;;;;;;4.05;2.10;;;;;;;22.48;62.44;101892.13;4994157;28;96750;-27
2023/07/17 10:05:00;;;;;;;6.10;2.30;;;;;;;22.68;62.61;101889.34;4993336;28;101307;-27
2023/07/17 10:07:27;;;;;;;8.40;1.98;;;;;;;22.79;60.95;101900.22;4993273;28;101176;-27
2023/07/17 10:09:53;;;;;;;6.05;2.00;;;;;;;22.74;60.91;101888.75;4993040;28;96631;-27
2023/07/17 10:12:19;;;;;;;7.68;2.20;;;;;;;22.87;60.47;101886.53;4992386;28;96881;-30
2023/07/17 10:14:47;;;;;;;6.22;1.92;;;;;;;22.67;60.61;101888.47;4990547;28;100894;-29
2023/07/17 10:17:23;;;;;;;5.38;1.80;;;;;;;22.44;60.26;101910.00;4990639;28;100869;-28
2023/07/17 10:19:49;;;;;;;5.88;1.75;;;;;;;22.34;59.65;101905.50;4991146;28;97130;-27
2023/07/17 10:22:14;;;;;;;3.75;1.98;;;;;;;22.20;60.10;101896.63;4991295;28;97060;-30
2023/07/17 10:24:41;;;;;;;6.40;2.13;;;;;;;22.01;59.95;101910.41;4992412;28;98656;-27
2023/07/17 10:27:07;;;;;;;5.45;1.90;;;;;;;21.81;61.60;101920.53;4992620;28;100856;-27
2023/07/17 10:29:41;;;;;;;4.53;1.85;;;;;;;21.42;63.13;101929.53;4993275;28;97426;-27
2023/07/17 10:32:14;;;;;;;5.25;2.03;;;;;;;21.11;64.02;101930.53;4993511;28;96712;-27
2023/07/17 10:34:51;;;;;;;5.85;1.75;;;;;;;20.87;64.88;101937.19;4993820;28;97921;-28
2023/07/17 10:37:28;;;;;;;5.40;2.05;;;;;;;20.63;65.98;101923.69;4993838;28;98983;-27
2023/07/17 10:40:04;;;;;;;3.00;1.60;;;;;;;20.57;66.22;101929.75;4994751;28;96456;-27
2023/07/17 10:42:31;;;;;;;4.00;1.73;;;;;;;20.48;65.41;101930.50;4993216;28;96758;-27
2023/07/17 10:45:07;;;;;;;3.10;1.63;;;;;;;20.78;65.99;101915.97;4992897;28;100626;-27
2023/07/17 10:47:33;;;;;;;3.72;1.08;;;;;;;21.36;64.72;101913.53;4993929;28;97293;-28
2023/07/17 10:50:05;;;;;;;3.83;1.27;;;;;;;21.89;64.29;101914.31;4994225;28;96855;-27
2023/07/17 10:52:34;;;;;;;6.07;1.38;;;;;;;22.18;62.06;101912.44;4994747;28;96734;-27
2023/07/17 10:55:06;;;;;;;4.35;2.00;;;;;;;22.53;61.88;101913.78;4992644;28;100963;-27
2023/07/17 10:57:32;;;;;;;3.80;1.83;;;;;;;22.81;61.21;101911.09;4992770;28;100989;-27
2023/07/17 10:59:58;;;;;;;5.47;1.85;;;;;;;22.82;60.09;101913.72;4992289;28;96585;-27
2023/07/17 11:02:26;;;;;;;5.45;2.30;;;;;;;22.73;60.90;101920.16;4993999;28;96813;-27
2023/07/17 11:04:57;;;;;;;6.18;1.92;;;;;;;22.56;60.98;101926.44;4992634;28;101406;-27
2023/07/17 11:07:22;;;;;;;5.43;2.30;;;;;;;22.47;60.42;101926.25;4992541;28;100899;-27
2023/07/17 11:09:48;;;;;;;4.35;1.75;;;;;;;22.37;60.68;101913.50;4994377;28;96671;-27
2023/07/17 11:12:13;;;;;;;5.13;2.00;;;;;;;22.14;60.81;101933.06;4994347;28;96766;-27
2023/07/17 11:14:39;;;;;;;5.53;1.90;;;;;;;21.95;59.89;101924.75;4993773;28;98118;-27
2023/07/17 11:17:05;;;;;;;5.30;1.83;;;;;;;22.10;60.81;101925.22;4994311;28;97789;-26
2023/07/17 11:19:30;;;;;;;8.77;2.42;;;;;;;22.04;61.44;101926.66;4994257;28;96588;-27